sensor_id;sensor_type;location;lat;lon;timestamp;P1;durP1;ratioP1;P2;durP2;ratioP2
11957;SDS011;6039;52.576;13.348;2022-07-09T00:01:30;8.63;;;2.80;;
11957;SDS011;6039;52.576;13.348;2022-07-09T00:06:32;6.37;;;2.77;;
11957;SDS011;6039;52.576;13.348;2022-07-09T00:11:36;5.50;;;2.90;;
11957;SDS011;6039;52.576;13.348;2022-07-09T00:16:38;7.67;;;2.80;;
11957;SDS011;6039;52.576;13.348;2022-07-09T00:21:41;9.13;;;3.33;;
11957;SDS011;6039;52.576;13.348;2022-07-09T00:26:45;6.10;;;2.90;;
11957;SDS011;6039;52.576;13.348;2022-07-09T00:31:48;4.37;;;2.60;;
11957;SDS011;6039;52.576;13.348;2022-07-09T00:36:50;7.20;;;2.97;;
11957;SDS011;6039;52.576;13.348;2022-07-09T00:42:02;9.50;;;3.50;;
11957;SDS011;6039;52.576;13.348;2022-07-09T00:47:06;6.43;;;3.27;;
11957;SDS011;6039;52.576;13.348;2022-07-09T00:52:10;7.50;;;2.93;;
11957;SDS011;6039;52.576;13.348;2022-07-09T00:57:14;8.30;;;3.30;;
11957;SDS011;6039;52.576;13.348;2022-07-09T01:02:19;9.43;;;3.13;;
11957;SDS011;6039;52.576;13.348;2022-07-09T01:07:23;11.37;;;3.10;;
11957;SDS011;6039;52.576;13.348;2022-07-09T01:12:27;8.07;;;3.07;;
11957;SDS011;6039;52.576;13.348;2022-07-09T01:17:36;10.40;;;3.20;;
11957;SDS011;6039;52.576;13.348;2022-07-09T01:22:40;10.03;;;3.10;;
11957;SDS011;6039;52.576;13.348;2022-07-09T01:27:43;9.83;;;3.30;;
11957;SDS011;6039;52.576;13.348;2022-07-09T01:32:45;8.80;;;3.50;;
11957;SDS011;6039;52.576;13.348;2022-07-09T01:37:50;7.20;;;3.23;;
11957;SDS011;6039;52.576;13.348;2022-07-09T01:42:53;6.60;;;3.23;;
11957;SDS011;6039;52.576;13.348;2022-07-09T01:47:56;8.57;;;3.63;;
11957;SDS011;6039;52.576;13.348;2022-07-09T01:53:06;13.00;;;4.30;;
11957;SDS011;6039;52.576;13.348;2022-07-09T01:58:10;8.77;;;3.40;;
11957;SDS011;6039;52.576;13.348;2022-07-09T02:03:14;9.73;;;4.00;;
11957;SDS011;6039;52.576;13.348;2022-07-09T02:08:19;10.30;;;4.10;;
11957;SDS011;6039;52.576;13.348;2022-07-09T02:13:21;7.30;;;3.63;;
11957;SDS011;6039;52.576;13.348;2022-07-09T02:18:27;12.50;;;4.60;;
11957;SDS011;6039;52.576;13.348;2022-07-09T02:23:31;14.27;;;4.40;;
11957;SDS011;6039;52.576;13.348;2022-07-09T02:28:33;10.27;;;4.30;;
11957;SDS011;6039;52.576;13.348;2022-07-09T02:33:36;9.47;;;3.90;;
11957;SDS011;6039;52.576;13.348;2022-07-09T02:38:40;8.57;;;4.33;;
11957;SDS011;6039;52.576;13.348;2022-07-09T02:43:42;8.27;;;3.80;;
11957;SDS011;6039;52.576;13.348;2022-07-09T02:48:44;10.80;;;4.10;;
11957;SDS011;6039;52.576;13.348;2022-07-09T02:53:48;10.93;;;4.37;;
11957;SDS011;6039;52.576;13.348;2022-07-09T02:58:51;10.93;;;4.23;;
11957;SDS011;6039;52.576;13.348;2022-07-09T03:03:53;9.73;;;4.10;;
11957;SDS011;6039;52.576;13.348;2022-07-09T03:08:57;8.17;;;3.90;;
11957;SDS011;6039;52.576;13.348;2022-07-09T03:13:59;8.00;;;4.00;;
11957;SDS011;6039;52.576;13.348;2022-07-09T03:19:02;9.13;;;4.43;;
11957;SDS011;6039;52.576;13.348;2022-07-09T03:24:08;7.93;;;4.47;;
11957;SDS011;6039;52.576;13.348;2022-07-09T03:29:10;8.37;;;4.00;;
11957;SDS011;6039;52.576;13.348;2022-07-09T03:34:12;9.87;;;4.07;;
11957;SDS011;6039;52.576;13.348;2022-07-09T03:39:16;7.60;;;3.67;;
11957;SDS011;6039;52.576;13.348;2022-07-09T03:44:19;9.00;;;3.83;;
11957;SDS011;6039;52.576;13.348;2022-07-09T03:49:21;7.40;;;3.77;;
11957;SDS011;6039;52.576;13.348;2022-07-09T03:54:25;15.20;;;4.07;;
11957;SDS011;6039;52.576;13.348;2022-07-09T03:59:28;9.33;;;3.90;;
11957;SDS011;6039;52.576;13.348;2022-07-09T04:04:30;5.13;;;3.33;;
11957;SDS011;6039;52.576;13.348;2022-07-09T04:09:34;7.17;;;3.63;;
11957;SDS011;6039;52.576;13.348;2022-07-09T04:14:37;12.90;;;4.23;;
11957;SDS011;6039;52.576;13.348;2022-07-09T04:19:39;6.63;;;3.63;;
11957;SDS011;6039;52.576;13.348;2022-07-09T04:24:43;6.23;;;3.73;;
11957;SDS011;6039;52.576;13.348;2022-07-09T04:29:45;11.47;;;3.60;;
11957;SDS011;6039;52.576;13.348;2022-07-09T04:34:48;9.27;;;3.63;;
11957;SDS011;6039;52.576;13.348;2022-07-09T04:39:51;9.20;;;3.40;;
11957;SDS011;6039;52.576;13.348;2022-07-09T04:44:54;8.80;;;3.40;;
11957;SDS011;6039;52.576;13.348;2022-07-09T04:49:57;9.93;;;3.60;;
11957;SDS011;6039;52.576;13.348;2022-07-09T04:55:01;7.47;;;3.43;;
11957;SDS011;6039;52.576;13.348;2022-07-09T05:00:05;7.73;;;3.43;;
11957;SDS011;6039;52.576;13.348;2022-07-09T05:05:08;9.60;;;3.33;;
11957;SDS011;6039;52.576;13.348;2022-07-09T05:10:12;8.13;;;3.70;;
11957;SDS011;6039;52.576;13.348;2022-07-09T05:15:15;7.30;;;3.70;;
11957;SDS011;6039;52.576;13.348;2022-07-09T05:20:17;10.03;;;3.93;;
11957;SDS011;6039;52.576;13.348;2022-07-09T05:25:21;6.87;;;3.37;;
11957;SDS011;6039;52.576;13.348;2022-07-09T05:30:23;11.87;;;3.67;;
11957;SDS011;6039;52.576;13.348;2022-07-09T05:35:26;10.00;;;3.50;;
11957;SDS011;6039;52.576;13.348;2022-07-09T05:40:30;10.17;;;3.70;;
11957;SDS011;6039;52.576;13.348;2022-07-09T05:45:36;7.90;;;3.57;;
11957;SDS011;6039;52.576;13.348;2022-07-09T05:50:39;6.47;;;3.73;;
11957;SDS011;6039;52.576;13.348;2022-07-09T05:55:45;10.17;;;4.10;;
11957;SDS011;6039;52.576;13.348;2022-07-09T06:00:47;6.53;;;3.70;;
11957;SDS011;6039;52.576;13.348;2022-07-09T06:05:50;4.73;;;3.13;;
11957;SDS011;6039;52.576;13.348;2022-07-09T06:10:54;7.67;;;3.70;;
11957;SDS011;6039;52.576;13.348;2022-07-09T06:15:57;13.70;;;3.97;;
11957;SDS011;6039;52.576;13.348;2022-07-09T06:20:59;5.63;;;3.23;;
11957;SDS011;6039;52.576;13.348;2022-07-09T06:26:04;10.20;;;3.40;;
11957;SDS011;6039;52.576;13.348;2022-07-09T06:31:13;9.60;;;3.27;;
11957;SDS011;6039;52.576;13.348;2022-07-09T06:36:19;8.07;;;3.20;;
11957;SDS011;6039;52.576;13.348;2022-07-09T06:41:24;11.93;;;4.00;;
11957;SDS011;6039;52.576;13.348;2022-07-09T06:46:29;10.53;;;3.07;;
11957;SDS011;6039;52.576;13.348;2022-07-09T06:51:37;9.20;;;3.30;;
11957;SDS011;6039;52.576;13.348;2022-07-09T06:56:41;7.23;;;3.27;;
11957;SDS011;6039;52.576;13.348;2022-07-09T07:01:43;7.10;;;3.30;;
11957;SDS011;6039;52.576;13.348;2022-07-09T07:06:46;7.60;;;3.20;;
11957;SDS011;6039;52.576;13.348;2022-07-09T07:11:51;4.57;;;2.83;;
11957;SDS011;6039;52.576;13.348;2022-07-09T07:16:53;9.77;;;3.10;;
11957;SDS011;6039;52.576;13.348;2022-07-09T07:22:02;6.37;;;3.17;;
11957;SDS011;6039;52.576;13.348;2022-07-09T07:27:07;4.77;;;3.00;;
11957;SDS011;6039;52.576;13.348;2022-07-09T07:32:10;7.17;;;3.43;;
11957;SDS011;6039;52.576;13.348;2022-07-09T07:37:12;6.70;;;2.70;;
11957;SDS011;6039;52.576;13.348;2022-07-09T07:42:16;9.73;;;3.30;;
11957;SDS011;6039;52.576;13.348;2022-07-09T07:47:24;5.37;;;2.90;;
11957;SDS011;6039;52.576;13.348;2022-07-09T07:52:27;2.80;;;2.27;;
11957;SDS011;6039;52.576;13.348;2022-07-09T07:57:31;11.70;;;3.40;;
11957;SDS011;6039;52.576;13.348;2022-07-09T08:02:33;16.37;;;3.83;;
11957;SDS011;6039;52.576;13.348;2022-07-09T08:07:36;7.90;;;3.30;;
11957;SDS011;6039;52.576;13.348;2022-07-09T08:12:39;9.17;;;3.33;;
11957;SDS011;6039;52.576;13.348;2022-07-09T08:17:42;9.30;;;3.60;;
11957;SDS011;6039;52.576;13.348;2022-07-09T08:22:45;12.53;;;3.50;;
11957;SDS011;6039;52.576;13.348;2022-07-09T08:27:48;12.03;;;3.17;;
11957;SDS011;6039;52.576;13.348;2022-07-09T08:32:51;8.77;;;3.50;;
11957;SDS011;6039;52.576;13.348;2022-07-09T08:37:53;16.27;;;3.80;;
11957;SDS011;6039;52.576;13.348;2022-07-09T08:42:57;9.83;;;3.83;;
11957;SDS011;6039;52.576;13.348;2022-07-09T08:48:04;7.47;;;3.50;;
11957;SDS011;6039;52.576;13.348;2022-07-09T08:53:07;8.23;;;3.03;;
11957;SDS011;6039;52.576;13.348;2022-07-09T08:58:13;7.57;;;3.07;;
11957;SDS011;6039;52.576;13.348;2022-07-09T09:03:16;18.30;;;4.17;;
11957;SDS011;6039;52.576;13.348;2022-07-09T09:08:19;10.33;;;3.40;;
11957;SDS011;6039;52.576;13.348;2022-07-09T09:13:23;9.80;;;4.97;;
11957;SDS011;6039;52.576;13.348;2022-07-09T09:18:26;10.63;;;4.23;;
11957;SDS011;6039;52.576;13.348;2022-07-09T09:23:29;7.90;;;4.20;;
11957;SDS011;6039;52.576;13.348;2022-07-09T09:28:32;13.67;;;4.43;;
11957;SDS011;6039;52.576;13.348;2022-07-09T09:33:35;6.90;;;3.60;;
11957;SDS011;6039;52.576;13.348;2022-07-09T09:38:37;6.70;;;4.17;;
11957;SDS011;6039;52.576;13.348;2022-07-09T09:43:44;6.77;;;3.60;;
11957;SDS011;6039;52.576;13.348;2022-07-09T09:48:48;6.53;;;3.90;;
11957;SDS011;6039;52.576;13.348;2022-07-09T09:53:52;7.03;;;3.83;;
11957;SDS011;6039;52.576;13.348;2022-07-09T09:58:56;6.57;;;4.07;;
11957;SDS011;6039;52.576;13.348;2022-07-09T10:03:59;6.40;;;3.77;;
11957;SDS011;6039;52.576;13.348;2022-07-09T10:09:02;6.80;;;4.23;;
11957;SDS011;6039;52.576;13.348;2022-07-09T10:14:13;8.80;;;4.47;;
11957;SDS011;6039;52.576;13.348;2022-07-09T10:19:23;7.77;;;4.00;;
11957;SDS011;6039;52.576;13.348;2022-07-09T10:24:27;6.47;;;3.87;;
11957;SDS011;6039;52.576;13.348;2022-07-09T10:29:32;9.23;;;3.60;;
11957;SDS011;6039;52.576;13.348;2022-07-09T10:34:50;8.90;;;3.80;;
11957;SDS011;6039;52.576;13.348;2022-07-09T10:40:12;5.70;;;3.50;;
11957;SDS011;6039;52.576;13.348;2022-07-09T10:45:19;8.50;;;3.30;;
11957;SDS011;6039;52.576;13.348;2022-07-09T10:50:23;5.00;;;3.00;;
11957;SDS011;6039;52.576;13.348;2022-07-09T10:55:28;5.03;;;2.80;;
11957;SDS011;6039;52.576;13.348;2022-07-09T11:00:32;4.93;;;2.27;;
11957;SDS011;6039;52.576;13.348;2022-07-09T11:05:43;2.83;;;2.20;;
11957;SDS011;6039;52.576;13.348;2022-07-09T11:10:46;8.03;;;2.90;;
11957;SDS011;6039;52.576;13.348;2022-07-09T11:15:50;6.87;;;2.70;;
11957;SDS011;6039;52.576;13.348;2022-07-09T11:20:58;6.60;;;2.40;;
11957;SDS011;6039;52.576;13.348;2022-07-09T11:26:01;3.87;;;2.20;;
11957;SDS011;6039;52.576;13.348;2022-07-09T11:31:05;4.67;;;2.23;;
11957;SDS011;6039;52.576;13.348;2022-07-09T11:36:07;4.63;;;2.50;;
11957;SDS011;6039;52.576;13.348;2022-07-09T11:41:09;6.57;;;2.30;;
11957;SDS011;6039;52.576;13.348;2022-07-09T11:46:16;7.00;;;2.80;;
11957;SDS011;6039;52.576;13.348;2022-07-09T11:51:27;6.63;;;2.70;;
11957;SDS011;6039;52.576;13.348;2022-07-09T11:56:39;4.07;;;2.23;;
11957;SDS011;6039;52.576;13.348;2022-07-09T12:01:44;6.03;;;2.50;;
11957;SDS011;6039;52.576;13.348;2022-07-09T12:06:47;4.97;;;2.40;;
11957;SDS011;6039;52.576;13.348;2022-07-09T12:11:50;3.70;;;2.10;;
11957;SDS011;6039;52.576;13.348;2022-07-09T12:16:54;3.93;;;2.17;;
11957;SDS011;6039;52.576;13.348;2022-07-09T12:21:57;3.30;;;2.00;;
11957;SDS011;6039;52.576;13.348;2022-07-09T12:27:00;4.13;;;2.00;;
11957;SDS011;6039;52.576;13.348;2022-07-09T12:32:04;3.07;;;1.90;;
11957;SDS011;6039;52.576;13.348;2022-07-09T12:37:07;4.50;;;1.80;;
11957;SDS011;6039;52.576;13.348;2022-07-09T12:42:09;3.60;;;1.97;;
11957;SDS011;6039;52.576;13.348;2022-07-09T12:47:13;3.27;;;2.13;;
11957;SDS011;6039;52.576;13.348;2022-07-09T12:52:15;2.50;;;2.30;;
11957;SDS011;6039;52.576;13.348;2022-07-09T12:57:18;3.70;;;2.10;;
11957;SDS011;6039;52.576;13.348;2022-07-09T13:02:21;4.73;;;2.27;;
11957;SDS011;6039;52.576;13.348;2022-07-09T13:07:24;4.43;;;2.50;;
11957;SDS011;6039;52.576;13.348;2022-07-09T13:12:26;4.07;;;2.33;;
11957;SDS011;6039;52.576;13.348;2022-07-09T13:17:30;3.67;;;2.30;;
11957;SDS011;6039;52.576;13.348;2022-07-09T13:22:32;3.47;;;2.40;;
11957;SDS011;6039;52.576;13.348;2022-07-09T13:27:35;2.87;;;2.20;;
11957;SDS011;6039;52.576;13.348;2022-07-09T13:32:39;3.60;;;2.17;;
11957;SDS011;6039;52.576;13.348;2022-07-09T13:37:41;1.93;;;1.60;;
11957;SDS011;6039;52.576;13.348;2022-07-09T13:42:44;4.00;;;2.00;;
11957;SDS011;6039;52.576;13.348;2022-07-09T13:47:47;2.83;;;1.60;;
11957;SDS011;6039;52.576;13.348;2022-07-09T13:52:50;1.53;;;1.43;;
11957;SDS011;6039;52.576;13.348;2022-07-09T13:57:52;2.63;;;1.53;;
11957;SDS011;6039;52.576;13.348;2022-07-09T14:02:56;2.13;;;1.60;;
11957;SDS011;6039;52.576;13.348;2022-07-09T14:07:59;2.27;;;1.60;;
11957;SDS011;6039;52.576;13.348;2022-07-09T14:13:02;1.77;;;1.50;;
11957;SDS011;6039;52.576;13.348;2022-07-09T14:18:06;2.27;;;1.80;;
11957;SDS011;6039;52.576;13.348;2022-07-09T14:23:09;5.50;;;1.67;;
11957;SDS011;6039;52.576;13.348;2022-07-09T14:28:12;2.67;;;1.80;;
11957;SDS011;6039;52.576;13.348;2022-07-09T14:33:16;2.73;;;1.47;;
11957;SDS011;6039;52.576;13.348;2022-07-09T14:38:18;1.87;;;1.30;;
11957;SDS011;6039;52.576;13.348;2022-07-09T14:43:20;2.03;;;1.20;;
11957;SDS011;6039;52.576;13.348;2022-07-09T14:48:24;1.20;;;1.10;;
11957;SDS011;6039;52.576;13.348;2022-07-09T14:53:26;1.87;;;1.27;;
11957;SDS011;6039;52.576;13.348;2022-07-09T14:58:29;1.10;;;1.00;;
11957;SDS011;6039;52.576;13.348;2022-07-09T15:03:33;1.47;;;1.10;;
11957;SDS011;6039;52.576;13.348;2022-07-09T15:08:35;1.20;;;0.70;;
11957;SDS011;6039;52.576;13.348;2022-07-09T15:13:37;1.20;;;1.10;;
11957;SDS011;6039;52.576;13.348;2022-07-09T15:18:42;1.10;;;0.97;;
11957;SDS011;6039;52.576;13.348;2022-07-09T15:23:44;1.37;;;0.90;;
11957;SDS011;6039;52.576;13.348;2022-07-09T15:28:47;1.50;;;1.20;;
11957;SDS011;6039;52.576;13.348;2022-07-09T15:33:51;2.73;;;1.57;;
11957;SDS011;6039;52.576;13.348;2022-07-09T15:38:53;3.13;;;1.37;;
11957;SDS011;6039;52.576;13.348;2022-07-09T15:43:55;1.47;;;1.20;;
11957;SDS011;6039;52.576;13.348;2022-07-09T15:49:02;2.83;;;1.60;;
11957;SDS011;6039;52.576;13.348;2022-07-09T15:54:05;2.40;;;1.40;;
11957;SDS011;6039;52.576;13.348;2022-07-09T15:59:07;1.90;;;1.40;;
11957;SDS011;6039;52.576;13.348;2022-07-09T16:04:11;3.87;;;1.80;;
11957;SDS011;6039;52.576;13.348;2022-07-09T16:09:13;1.77;;;1.40;;
11957;SDS011;6039;52.576;13.348;2022-07-09T16:14:16;4.30;;;2.00;;
11957;SDS011;6039;52.576;13.348;2022-07-09T16:19:19;4.13;;;1.60;;
11957;SDS011;6039;52.576;13.348;2022-07-09T16:24:22;2.90;;;1.63;;
11957;SDS011;6039;52.576;13.348;2022-07-09T16:29:24;2.00;;;1.80;;
11957;SDS011;6039;52.576;13.348;2022-07-09T16:34:28;4.43;;;1.80;;
11957;SDS011;6039;52.576;13.348;2022-07-09T16:39:31;3.60;;;1.70;;
11957;SDS011;6039;52.576;13.348;2022-07-09T16:44:33;3.70;;;2.13;;
11957;SDS011;6039;52.576;13.348;2022-07-09T16:49:37;2.97;;;1.60;;
11957;SDS011;6039;52.576;13.348;2022-07-09T16:54:40;1.93;;;1.70;;
11957;SDS011;6039;52.576;13.348;2022-07-09T16:59:42;2.37;;;1.73;;
11957;SDS011;6039;52.576;13.348;2022-07-09T17:04:46;3.07;;;1.50;;
11957;SDS011;6039;52.576;13.348;2022-07-09T17:09:49;3.57;;;1.60;;
11957;SDS011;6039;52.576;13.348;2022-07-09T17:14:51;1.93;;;1.70;;
11957;SDS011;6039;52.576;13.348;2022-07-09T17:20:00;2.80;;;1.80;;
11957;SDS011;6039;52.576;13.348;2022-07-09T17:25:04;1.97;;;1.40;;
11957;SDS011;6039;52.576;13.348;2022-07-09T17:30:11;2.30;;;1.23;;
11957;SDS011;6039;52.576;13.348;2022-07-09T17:35:15;2.23;;;1.77;;
11957;SDS011;6039;52.576;13.348;2022-07-09T17:40:18;5.47;;;2.07;;
11957;SDS011;6039;52.576;13.348;2022-07-09T17:45:20;3.23;;;1.93;;
11957;SDS011;6039;52.576;13.348;2022-07-09T17:50:24;3.70;;;1.60;;
11957;SDS011;6039;52.576;13.348;2022-07-09T17:55:26;4.27;;;1.40;;
11957;SDS011;6039;52.576;13.348;2022-07-09T18:00:30;1.63;;;1.43;;
11957;SDS011;6039;52.576;13.348;2022-07-09T18:05:34;3.50;;;1.60;;
11957;SDS011;6039;52.576;13.348;2022-07-09T18:10:37;2.77;;;1.70;;
11957;SDS011;6039;52.576;13.348;2022-07-09T18:15:39;2.13;;;1.50;;
11957;SDS011;6039;52.576;13.348;2022-07-09T18:20:44;2.63;;;1.73;;
11957;SDS011;6039;52.576;13.348;2022-07-09T18:25:47;3.47;;;1.57;;
11957;SDS011;6039;52.576;13.348;2022-07-09T18:30:49;2.53;;;1.73;;
11957;SDS011;6039;52.576;13.348;2022-07-09T18:35:55;2.73;;;1.57;;
11957;SDS011;6039;52.576;13.348;2022-07-09T18:40:57;2.17;;;1.80;;
11957;SDS011;6039;52.576;13.348;2022-07-09T18:46:08;5.47;;;1.80;;
11957;SDS011;6039;52.576;13.348;2022-07-09T18:51:15;4.43;;;1.97;;
11957;SDS011;6039;52.576;13.348;2022-07-09T18:56:17;3.37;;;2.00;;
11957;SDS011;6039;52.576;13.348;2022-07-09T19:01:19;3.43;;;1.93;;
11957;SDS011;6039;52.576;13.348;2022-07-09T19:06:23;4.87;;;1.83;;
11957;SDS011;6039;52.576;13.348;2022-07-09T19:11:26;3.00;;;1.80;;
11957;SDS011;6039;52.576;13.348;2022-07-09T19:16:28;4.27;;;1.80;;
11957;SDS011;6039;52.576;13.348;2022-07-09T19:21:33;3.20;;;1.53;;
11957;SDS011;6039;52.576;13.348;2022-07-09T19:26:35;12.27;;;2.00;;
11957;SDS011;6039;52.576;13.348;2022-07-09T19:31:38;2.50;;;1.60;;
11957;SDS011;6039;52.576;13.348;2022-07-09T19:36:59;4.13;;;1.87;;
11957;SDS011;6039;52.576;13.348;2022-07-09T19:42:02;4.93;;;1.50;;
11957;SDS011;6039;52.576;13.348;2022-07-09T19:47:05;3.73;;;1.60;;
11957;SDS011;6039;52.576;13.348;2022-07-09T19:52:08;3.37;;;1.53;;
11957;SDS011;6039;52.576;13.348;2022-07-09T19:57:11;5.07;;;1.80;;
11957;SDS011;6039;52.576;13.348;2022-07-09T20:02:16;3.80;;;1.40;;
11957;SDS011;6039;52.576;13.348;2022-07-09T20:07:30;3.63;;;1.50;;
11957;SDS011;6039;52.576;13.348;2022-07-09T20:12:32;2.77;;;1.60;;
11957;SDS011;6039;52.576;13.348;2022-07-09T20:17:35;4.50;;;2.40;;
11957;SDS011;6039;52.576;13.348;2022-07-09T20:22:44;4.73;;;2.40;;
11957;SDS011;6039;52.576;13.348;2022-07-09T20:27:46;5.00;;;2.23;;
11957;SDS011;6039;52.576;13.348;2022-07-09T20:32:50;6.43;;;2.23;;
11957;SDS011;6039;52.576;13.348;2022-07-09T20:37:56;5.73;;;2.03;;
11957;SDS011;6039;52.576;13.348;2022-07-09T20:42:59;5.00;;;2.00;;
11957;SDS011;6039;52.576;13.348;2022-07-09T20:48:01;5.30;;;2.10;;
11957;SDS011;6039;52.576;13.348;2022-07-09T20:53:05;2.83;;;1.60;;
11957;SDS011;6039;52.576;13.348;2022-07-09T20:58:08;6.90;;;1.73;;
11957;SDS011;6039;52.576;13.348;2022-07-09T21:03:10;5.17;;;1.73;;
11957;SDS011;6039;52.576;13.348;2022-07-09T21:08:14;5.73;;;1.40;;
11957;SDS011;6039;52.576;13.348;2022-07-09T21:13:20;6.67;;;1.67;;
11957;SDS011;6039;52.576;13.348;2022-07-09T21:18:35;4.57;;;1.70;;
11957;SDS011;6039;52.576;13.348;2022-07-09T21:23:52;5.03;;;1.47;;
11957;SDS011;6039;52.576;13.348;2022-07-09T21:28:54;6.83;;;1.90;;
11957;SDS011;6039;52.576;13.348;2022-07-09T21:33:57;4.43;;;1.50;;
11957;SDS011;6039;52.576;13.348;2022-07-09T21:39:01;5.37;;;1.80;;
11957;SDS011;6039;52.576;13.348;2022-07-09T21:44:06;7.47;;;1.70;;
11957;SDS011;6039;52.576;13.348;2022-07-09T21:49:08;8.03;;;1.60;;
11957;SDS011;6039;52.576;13.348;2022-07-09T21:54:12;4.60;;;1.37;;
11957;SDS011;6039;52.576;13.348;2022-07-09T21:59:15;5.23;;;1.70;;
11957;SDS011;6039;52.576;13.348;2022-07-09T22:04:17;3.20;;;1.50;;
11957;SDS011;6039;52.576;13.348;2022-07-09T22:09:21;6.07;;;1.80;;
11957;SDS011;6039;52.576;13.348;2022-07-09T22:14:24;5.83;;;1.60;;
11957;SDS011;6039;52.576;13.348;2022-07-09T22:19:26;4.07;;;1.60;;
11957;SDS011;6039;52.576;13.348;2022-07-09T22:24:30;9.57;;;1.80;;
11957;SDS011;6039;52.576;13.348;2022-07-09T22:29:35;6.13;;;1.50;;
11957;SDS011;6039;52.576;13.348;2022-07-09T22:34:40;2.10;;;1.20;;
11957;SDS011;6039;52.576;13.348;2022-07-09T22:39:44;5.37;;;1.70;;
11957;SDS011;6039;52.576;13.348;2022-07-09T22:44:47;4.83;;;1.20;;
11957;SDS011;6039;52.576;13.348;2022-07-09T22:49:49;5.80;;;1.60;;
11957;SDS011;6039;52.576;13.348;2022-07-09T22:54:54;7.13;;;1.83;;
11957;SDS011;6039;52.576;13.348;2022-07-09T22:59:58;9.07;;;1.80;;
11957;SDS011;6039;52.576;13.348;2022-07-09T23:05:00;4.60;;;1.70;;
11957;SDS011;6039;52.576;13.348;2022-07-09T23:10:05;4.73;;;1.57;;
11957;SDS011;6039;52.576;13.348;2022-07-09T23:15:08;8.50;;;1.73;;
11957;SDS011;6039;52.576;13.348;2022-07-09T23:20:11;3.30;;;1.67;;
11957;SDS011;6039;52.576;13.348;2022-07-09T23:25:15;6.07;;;1.80;;
11957;SDS011;6039;52.576;13.348;2022-07-09T23:30:17;6.67;;;2.23;;
11957;SDS011;6039;52.576;13.348;2022-07-09T23:35:20;7.47;;;1.83;;
11957;SDS011;6039;52.576;13.348;2022-07-09T23:40:24;3.87;;;1.70;;
11957;SDS011;6039;52.576;13.348;2022-07-09T23:45:27;4.83;;;1.60;;
11957;SDS011;6039;52.576;13.348;2022-07-09T23:50:29;6.77;;;2.10;;
11957;SDS011;6039;52.576;13.348;2022-07-09T23:55:33;9.33;;;2.00;;
